Time;durP1;ratioP1;P1;durP2;ratioP2;P2;SDS_P1;SDS_P2;PMS_P1;PMS_P2;Temp;Humidity;BMP_temperature;BMP_pressure;BME280_temperature;BME280_humidity;BME280_pressure;Samples;Min_cycle;Max_cycle;Signal;HPM_P1;HPM_P2
2023/05/16 00:01:38;;;;;;;50.60;35.37;;;;;;;16.09;100.00;99324.31;5018607;28;20205;-70
2023/05/16 00:04:05;;;;;;;47.10;34.63;;;;;;;16.02;100.00;99320.94;5028521;28;20194;-69
2023/05/16 00:06:32;;;;;;;43.73;34.07;;;;;;;16.02;100.00;99325.25;5014952;28;20206;-69
2023/05/16 00:09:00;;;;;;;46.47;34.73;;;;;;;15.96;100.00;99311.19;5014747;28;20221;-70
2023/05/16 00:11:27;;;;;;;44.40;34.60;;;;;;;16.03;100.00;99326.06;5014499;28;20206;-69
2023/05/16 00:13:54;;;;;;;44.23;35.07;;;;;;;16.07;100.00;99321.88;5014771;28;20285;-70
2023/05/16 00:16:21;;;;;;;51.07;35.20;;;;;;;16.09;100.00;99319.75;5028574;28;20276;-70
2023/05/16 00:18:48;;;;;;;48.60;34.33;;;;;;;16.08;100.00;99317.34;5034345;28;20204;-70
2023/05/16 00:21:15;;;;;;;48.73;35.77;;;;;;;16.12;100.00;99313.94;5033386;28;20205;-69
2023/05/16 00:23:42;;;;;;;52.33;35.90;;;;;;;16.14;100.00;99319.06;5034428;28;20251;-69
2023/05/16 00:26:10;;;;;;;50.90;35.90;;;;;;;16.16;100.00;99314.28;5033882;28;20225;-69
2023/05/16 00:28:37;;;;;;;48.17;35.60;;;;;;;16.14;100.00;99308.34;5016619;28;20194;-69
2023/05/16 00:31:04;;;;;;;48.23;35.90;;;;;;;16.16;100.00;99309.72;5014536;28;20230;-69
2023/05/16 00:33:31;;;;;;;51.17;33.77;;;;;;;16.16;100.00;99311.63;5014064;28;20666;-71
2023/05/16 00:35:58;;;;;;;44.70;33.87;;;;;;;16.17;100.00;99310.56;5014447;28;20616;-70
2023/05/16 00:38:26;;;;;;;48.17;36.00;;;;;;;16.11;100.00;99306.13;5014310;28;20205;-70
2023/05/16 00:40:53;;;;;;;50.80;36.03;;;;;;;16.06;100.00;99308.69;5018460;28;20223;-70
2023/05/16 00:43:21;;;;;;;51.27;36.00;;;;;;;16.04;100.00;99310.81;5033950;28;20197;-70
2023/05/16 00:45:48;;;;;;;45.57;34.63;;;;;;;16.01;100.00;99303.25;5034061;28;20201;-70
2023/05/16 00:48:15;;;;;;;51.27;35.73;;;;;;;16.00;100.00;99309.66;5034180;28;20197;-70
2023/05/16 00:50:42;;;;;;;47.67;37.03;;;;;;;16.00;100.00;99296.25;5032678;28;20692;-70
2023/05/16 00:53:09;;;;;;;46.27;35.80;;;;;;;15.98;100.00;99290.31;5034048;28;20205;-70
2023/05/16 00:55:36;;;;;;;45.50;37.23;;;;;;;15.92;100.00;99286.69;5023379;28;20202;-71
2023/05/16 00:58:05;;;;;;;50.63;36.50;;;;;;;15.94;100.00;99293.44;5014150;28;20203;-70
2023/05/16 01:00:33;;;;;;;50.57;36.97;;;;;;;15.97;100.00;99294.03;5013994;28;20260;-70
2023/05/16 01:03:00;;;;;;;50.40;38.13;;;;;;;15.89;100.00;99271.91;5014098;28;20623;-71
2023/05/16 01:05:28;;;;;;;50.43;38.73;;;;;;;16.07;100.00;99297.75;5029738;28;20193;-71
2023/05/16 01:07:55;;;;;;;46.40;36.63;;;;;;;16.07;100.00;99288.88;5032489;28;20209;-71
2023/05/16 01:10:22;;;;;;;50.20;36.40;;;;;;;15.93;100.00;99274.13;5031505;28;20225;-71
2023/05/16 01:13:00;;;;;;;47.20;36.83;;;;;;;15.89;100.00;99277.28;5033341;28;20247;-71
2023/05/16 01:15:30;;;;;;;48.83;36.93;;;;;;;16.04;100.00;99289.38;5033652;28;20208;-70
2023/05/16 01:18:08;;;;;;;47.03;36.90;;;;;;;16.06;100.00;99281.91;5033317;28;20193;-70
2023/05/16 01:20:47;;;;;;;53.00;36.83;;;;;;;16.10;100.00;99283.06;5033464;28;20185;-70
2023/05/16 01:23:27;;;;;;;49.97;36.23;;;;;;;16.12;100.00;99276.41;5029693;28;20205;-72
2023/05/16 01:26:02;;;;;;;47.83;36.70;;;;;;;16.17;100.00;99276.50;5013158;28;20620;-72
2023/05/16 01:28:30;;;;;;;47.07;35.97;;;;;;;16.18;100.00;99280.03;5013487;28;20688;-72
2023/05/16 01:30:57;;;;;;;48.63;35.77;;;;;;;16.19;100.00;99278.97;5013103;28;20763;-72
2023/05/16 01:33:24;;;;;;;47.40;36.27;;;;;;;16.11;100.00;99257.88;5023170;28;20201;-71
2023/05/16 01:36:00;;;;;;;48.53;35.27;;;;;;;16.09;100.00;99254.66;5032741;28;20197;-71
2023/05/16 01:38:37;;;;;;;47.50;36.03;;;;;;;16.19;100.00;99271.75;5031153;28;20186;-70
2023/05/16 01:41:13;;;;;;;58.40;38.57;;;;;;;16.18;100.00;99270.13;5033138;28;20570;-71
2023/05/16 01:43:44;;;;;;;54.53;36.90;;;;;;;16.15;100.00;99269.75;5032579;28;20555;-70
2023/05/16 01:46:14;;;;;;;47.17;35.90;;;;;;;16.13;100.00;99261.16;5032517;28;20201;-70
2023/05/16 01:48:49;;;;;;;45.70;34.73;;;;;;;16.16;100.00;99266.06;5032790;28;20195;-71
2023/05/16 01:51:16;;;;;;;47.13;36.90;;;;;;;16.17;100.00;99256.97;5032412;28;20268;-70
2023/05/16 01:53:44;;;;;;;54.17;38.13;;;;;;;16.19;100.00;99257.53;5012789;28;20202;-71
2023/05/16 01:56:16;;;;;;;49.47;36.97;;;;;;;16.16;100.00;99240.06;5012765;28;20194;-71
2023/05/16 01:58:46;;;;;;;51.13;38.57;;;;;;;16.22;100.00;99244.47;5012857;28;20194;-70
2023/05/16 02:01:13;;;;;;;72.03;50.97;;;;;;;16.19;99.94;99236.06;5012647;28;20219;-70
2023/05/16 02:03:40;;;;;;;49.27;37.50;;;;;;;16.16;100.00;99231.22;5013805;28;20276;-70
2023/05/16 02:06:07;;;;;;;53.20;37.63;;;;;;;16.20;100.00;99227.81;5030588;28;20727;-71
2023/05/16 02:08:34;;;;;;;48.77;37.20;;;;;;;16.21;100.00;99223.28;5030118;28;20727;-71
2023/05/16 02:11:00;;;;;;;59.93;41.80;;;;;;;16.22;99.85;99228.41;5032173;28;20355;-71
2023/05/16 02:13:27;;;;;;;54.53;38.63;;;;;;;16.19;99.52;99225.34;5032312;28;20197;-70
2023/05/16 02:15:55;;;;;;;51.20;36.33;;;;;;;16.21;99.84;99225.94;5032355;28;20197;-70
2023/05/16 02:18:22;;;;;;;49.33;35.90;;;;;;;16.21;99.64;99225.94;5031874;28;20193;-71
2023/05/16 02:20:49;;;;;;;45.07;34.50;;;;;;;16.20;99.51;99240.41;5025750;28;20636;-71
2023/05/16 02:23:15;;;;;;;47.10;35.53;;;;;;;16.16;99.84;99233.91;5012507;28;20202;-71
2023/05/16 02:25:42;;;;;;;46.77;34.53;;;;;;;16.11;99.31;99231.09;5012503;28;20627;-72
2023/05/16 02:28:09;;;;;;;44.63;33.77;;;;;;;16.08;99.83;99226.22;5012044;28;20252;-71
2023/05/16 02:30:36;;;;;;;41.40;34.30;;;;;;;16.01;99.91;99223.69;5012469;28;20260;-71
2023/05/16 02:33:04;;;;;;;54.77;35.93;;;;;;;16.02;100.00;99223.44;5012476;28;20264;-71
2023/05/16 02:35:30;;;;;;;51.30;37.13;;;;;;;15.94;99.60;99221.13;5020621;28;20332;-72
2023/05/16 02:37:57;;;;;;;58.57;36.90;;;;;;;15.89;100.00;99222.91;5031973;28;20255;-72
2023/05/16 02:40:24;;;;;;;54.23;35.00;;;;;;;15.83;100.00;99213.94;5030700;28;20197;-72
2023/05/16 02:42:51;;;;;;;49.00;36.17;;;;;;;15.83;100.00;99208.59;5031557;28;20209;-70
2023/05/16 02:45:17;;;;;;;48.53;36.73;;;;;;;15.83;100.00;99208.59;5031884;28;20194;-70
2023/05/16 02:47:44;;;;;;;51.03;36.67;;;;;;;15.80;100.00;99203.69;5031561;28;20612;-71
2023/05/16 02:50:12;;;;;;;54.67;35.73;;;;;;;15.78;100.00;99203.13;5014880;28;20222;-70
2023/05/16 02:52:39;;;;;;;48.57;37.30;;;;;;;15.80;100.00;99198.34;5012093;28;20198;-72
2023/05/16 02:55:07;;;;;;;47.97;36.70;;;;;;;15.80;100.00;99202.88;5012025;28;20646;-72
2023/05/16 02:57:34;;;;;;;54.57;37.23;;;;;;;15.83;100.00;99205.09;5011633;28;20197;-71
2023/05/16 03:00:00;;;;;;;53.77;37.80;;;;;;;15.85;100.00;99213.72;5022407;28;20259;-72
2023/05/16 03:02:27;;;;;;;52.00;36.23;;;;;;;15.81;100.00;99218.72;5030790;28;21388;-71
2023/05/16 03:04:54;;;;;;;54.73;37.50;;;;;;;15.85;100.00;99230.56;5019360;28;20256;-72
2023/05/16 03:07:22;;;;;;;50.00;35.43;;;;;;;15.79;100.00;99236.91;5011996;28;20385;-72
2023/05/16 03:09:49;;;;;;;56.47;37.97;;;;;;;15.75;100.00;99240.25;5012132;28;20206;-72
2023/05/16 03:12:16;;;;;;;55.10;37.63;;;;;;;15.68;100.00;99234.22;5011965;28;20285;-72
2023/05/16 03:14:42;;;;;;;51.00;37.63;;;;;;;15.61;100.00;99233.53;5011800;28;20547;-71
2023/05/16 03:17:09;;;;;;;55.10;36.83;;;;;;;15.62;100.00;99237.84;5017044;28;20201;-73
2023/05/16 03:19:36;;;;;;;55.47;37.60;;;;;;;15.61;100.00;99237.00;5031367;28;20746;-72
2023/05/16 03:22:02;;;;;;;52.97;37.57;;;;;;;15.61;100.00;99231.66;5031332;28;20197;-72
2023/05/16 03:24:31;;;;;;;58.00;38.17;;;;;;;15.55;100.00;99239.81;5031075;28;20629;-72
2023/05/16 03:26:58;;;;;;;52.43;36.17;;;;;;;15.54;100.00;99241.69;5031609;28;20205;-72
2023/05/16 03:29:25;;;;;;;53.60;37.43;;;;;;;15.56;100.00;99246.81;5031410;28;20233;-71
2023/05/16 03:31:51;;;;;;;64.43;37.73;;;;;;;15.48;100.00;99239.16;5021504;28;20704;-71
2023/05/16 03:34:18;;;;;;;62.20;37.87;;;;;;;15.44;100.00;99225.38;5011390;28;20206;-70
2023/05/16 03:36:45;;;;;;;55.70;37.17;;;;;;;15.33;100.00;99228.88;5011539;28;20222;-70
2023/05/16 03:39:12;;;;;;;59.20;38.97;;;;;;;15.39;100.00;99227.97;5011187;28;20201;-70
2023/05/16 03:41:40;;;;;;;62.37;39.23;;;;;;;15.47;100.00;99243.66;5018112;28;20201;-71
2023/05/16 03:44:06;;;;;;;73.77;39.17;;;;;;;15.52;100.00;99243.78;5031296;28;20208;-71
2023/05/16 03:46:33;;;;;;;62.93;38.50;;;;;;;15.51;100.00;99247.50;5031338;28;20263;-70
2023/05/16 03:49:00;;;;;;;61.07;38.63;;;;;;;15.49;100.00;99244.22;5031321;28;20206;-73
2023/05/16 03:51:27;;;;;;;59.40;39.37;;;;;;;15.47;100.00;99251.69;5031067;28;20279;-71
2023/05/16 03:53:53;;;;;;;62.53;39.33;;;;;;;15.49;100.00;99248.78;5022897;28;20198;-70
2023/05/16 03:56:20;;;;;;;67.30;39.47;;;;;;;15.50;100.00;99250.41;5013467;28;20202;-71
2023/05/16 03:58:48;;;;;;;69.10;39.53;;;;;;;15.53;100.00;99244.59;5019892;28;20285;-69
2023/05/16 04:01:15;;;;;;;72.27;39.80;;;;;;;15.56;100.00;99244.94;5022973;28;20194;-68
2023/05/16 04:03:42;;;;;;;71.10;40.20;;;;;;;15.59;100.00;99247.16;5031099;28;20236;-70
2023/05/16 04:06:08;;;;;;;76.97;41.53;;;;;;;15.62;100.00;99241.34;5013523;28;20237;-71
2023/05/16 04:08:35;;;;;;;70.53;40.60;;;;;;;15.71;100.00;99237.25;5028959;28;20256;-71
2023/05/16 04:11:02;;;;;;;82.23;41.20;;;;;;;15.81;100.00;99237.44;5034609;28;20271;-71
2023/05/16 04:13:28;;;;;;;88.77;42.00;;;;;;;15.90;100.00;99230.69;5033937;28;20727;-71
2023/05/16 04:15:56;;;;;;;89.63;40.90;;;;;;;16.05;100.00;99226.69;5034027;28;20193;-72
2023/05/16 04:18:23;;;;;;;94.00;41.80;;;;;;;16.20;100.00;99230.50;5034298;28;20193;-71
2023/05/16 04:20:50;;;;;;;74.67;41.20;;;;;;;16.27;100.00;99231.16;5031278;28;20197;-70
2023/05/16 04:23:17;;;;;;;64.63;38.30;;;;;;;16.36;100.00;99218.19;5014455;28;20253;-70
2023/05/16 04:25:43;;;;;;;61.73;37.50;;;;;;;16.55;100.00;99227.69;5014433;28;20296;-69
2023/05/16 04:28:10;;;;;;;70.57;38.77;;;;;;;16.75;100.00;99228.06;5013991;28;20198;-70
2023/05/16 04:30:37;;;;;;;65.30;37.37;;;;;;;16.88;99.57;99222.38;5013994;28;20291;-71
2023/05/16 04:33:06;;;;;;;64.27;37.47;;;;;;;17.11;99.60;99220.34;5013939;28;20666;-72
2023/05/16 04:35:32;;;;;;;73.20;37.10;;;;;;;17.31;98.59;99233.28;5018448;28;20247;-71
2023/05/16 04:37:59;;;;;;;71.50;38.43;;;;;;;17.45;97.39;99248.03;5033566;28;20241;-72
2023/05/16 04:40:26;;;;;;;68.67;37.37;;;;;;;17.59;96.77;99243.94;5033716;28;20201;-72
2023/05/16 04:42:54;;;;;;;63.80;36.90;;;;;;;17.62;94.79;99238.06;5033401;28;20648;-73
2023/05/16 04:45:21;;;;;;;66.63;38.30;;;;;;;17.85;94.48;99251.28;5033982;28;20193;-74
2023/05/16 04:47:48;;;;;;;54.77;37.47;;;;;;;17.92;94.08;99238.50;5033250;28;20204;-74
2023/05/16 04:50:16;;;;;;;67.90;36.33;;;;;;;17.85;90.73;99257.47;5013949;28;20277;-73
2023/05/16 04:52:43;;;;;;;60.57;38.23;;;;;;;17.68;90.56;99245.94;5014156;28;20190;-72
2023/05/16 04:55:11;;;;;;;49.97;36.53;;;;;;;17.80;91.04;99253.91;5013680;28;20204;-73
2023/05/16 04:57:38;;;;;;;50.93;37.27;;;;;;;17.79;90.61;99252.28;5013932;28;20666;-72
2023/05/16 05:00:07;;;;;;;57.77;36.03;;;;;;;17.97;90.63;99252.78;5015388;28;20281;-74
2023/05/16 05:02:34;;;;;;;54.40;35.87;;;;;;;17.98;88.00;99257.13;5033962;28;20201;-74
2023/05/16 05:05:01;;;;;;;52.80;35.10;;;;;;;18.21;88.72;99264.13;5020620;28;20265;-73
2023/05/16 05:07:29;;;;;;;50.73;34.40;;;;;;;18.47;86.87;99266.06;5013850;28;20248;-75
2023/05/16 05:09:56;;;;;;;45.60;32.37;;;;;;;18.68;85.19;99263.34;5013792;28;20201;-76
2023/05/16 05:12:22;;;;;;;35.27;28.77;;;;;;;18.79;83.89;99272.34;5013699;28;20254;-76
2023/05/16 05:14:49;;;;;;;47.23;29.53;;;;;;;18.74;82.65;99275.00;5017486;28;20620;-73
2023/05/16 05:17:16;;;;;;;51.60;31.17;;;;;;;18.59;82.38;99262.16;5033278;28;20277;-75
2023/05/16 05:19:42;;;;;;;46.33;31.97;;;;;;;18.65;84.27;99265.72;5033427;28;20194;-73
2023/05/16 05:22:09;;;;;;;46.87;32.53;;;;;;;18.68;83.57;99270.59;5033414;28;20259;-73
2023/05/16 05:24:37;;;;;;;51.03;31.83;;;;;;;18.50;83.36;99263.69;5033322;28;20208;-71
2023/05/16 05:27:04;;;;;;;50.30;33.73;;;;;;;18.46;83.71;99261.78;5033467;28;20201;-72
2023/05/16 05:29:31;;;;;;;44.17;30.87;;;;;;;18.55;84.82;99262.94;5023341;28;20226;-72
2023/05/16 05:31:58;;;;;;;49.83;31.53;;;;;;;18.48;83.69;99270.38;5013463;28;20303;-71
2023/05/16 05:34:24;;;;;;;71.37;32.07;;;;;;;18.43;84.59;99270.34;5013366;28;20650;-71
2023/05/16 05:36:51;;;;;;;48.90;32.27;;;;;;;18.41;84.30;99257.13;5013502;28;20190;-71
2023/05/16 05:39:18;;;;;;;49.33;32.83;;;;;;;18.47;84.94;99256.13;5013290;28;20201;-72
2023/05/16 05:41:46;;;;;;;46.70;31.63;;;;;;;18.52;84.12;99248.13;5013082;28;20722;-73
2023/05/16 05:44:12;;;;;;;42.13;30.77;;;;;;;18.59;84.07;99245.22;5026884;28;20251;-73
2023/05/16 05:46:40;;;;;;;45.37;29.53;;;;;;;18.52;83.83;99225.78;5012964;28;20737;-73
2023/05/16 05:49:06;;;;;;;45.90;28.43;;;;;;;18.71;83.21;99240.50;5012163;28;20261;-75
2023/05/16 05:51:33;;;;;;;33.17;25.93;;;;;;;18.72;82.76;99234.88;5026400;28;20222;-75
2023/05/16 05:54:01;;;;;;;36.67;24.07;;;;;;;18.78;81.71;99257.28;5032458;28;20203;-75
2023/05/16 05:56:27;;;;;;;37.03;23.63;;;;;;;18.79;81.07;99262.38;5032606;28;20189;-75
2023/05/16 05:58:55;;;;;;;29.93;21.33;;;;;;;18.71;81.06;99257.44;5031755;28;20199;-73
2023/05/16 06:01:23;;;;;;;30.63;22.43;;;;;;;18.58;80.99;99247.09;5031308;28;20198;-75
2023/05/16 06:03:50;;;;;;;39.20;25.33;;;;;;;18.53;81.48;99244.34;5027772;28;20186;-74
2023/05/16 06:06:18;;;;;;;33.07;23.20;;;;;;;18.48;81.63;99240.78;5019882;28;20576;-73
2023/05/16 06:08:44;;;;;;;37.30;24.83;;;;;;;18.47;82.28;99234.63;5031569;28;20196;-74
2023/05/16 06:11:11;;;;;;;36.60;25.63;;;;;;;18.44;82.50;99250.44;5032239;28;20221;-75
2023/05/16 06:13:38;;;;;;;38.73;24.20;;;;;;;18.40;82.25;99260.06;5032251;28;20701;-75
2023/05/16 06:16:06;;;;;;;40.43;23.93;;;;;;;18.32;83.21;99245.16;5032450;28;20194;-75
2023/05/16 06:18:33;;;;;;;39.87;23.87;;;;;;;18.14;83.39;99240.13;5031575;28;20255;-74
2023/05/16 06:21:00;;;;;;;49.47;25.40;;;;;;;18.16;83.68;99255.97;5032549;28;20722;-74
2023/05/16 06:23:26;;;;;;;39.80;23.20;;;;;;;18.19;84.23;99279.69;5032002;28;20198;-75
2023/05/16 06:25:53;;;;;;;31.77;21.80;;;;;;;17.96;84.28;99226.16;5032479;28;20268;-74
2023/05/16 06:28:20;;;;;;;32.40;21.73;;;;;;;18.00;84.55;99230.78;5031931;28;20666;-74
2023/05/16 06:30:47;;;;;;;25.73;19.30;;;;;;;18.06;84.51;99239.75;5032105;28;20221;-74
2023/05/16 06:33:15;;;;;;;26.40;17.30;;;;;;;18.11;83.46;99245.16;5022342;28;20221;-72
2023/05/16 06:35:42;;;;;;;23.63;16.30;;;;;;;18.14;83.43;99263.50;5014811;28;20211;-75
2023/05/16 06:38:09;;;;;;;24.77;17.23;;;;;;;18.14;83.22;99248.19;5030625;28;20669;-74
2023/05/16 06:40:36;;;;;;;20.90;16.77;;;;;;;18.19;82.78;99231.28;5028908;28;20197;-73
2023/05/16 06:43:03;;;;;;;27.37;17.67;;;;;;;18.22;82.87;99226.22;5028632;28;20194;-75
2023/05/16 06:45:29;;;;;;;19.63;15.93;;;;;;;18.17;82.71;99231.53;5030147;28;20259;-74
2023/05/16 06:47:56;;;;;;;22.07;17.60;;;;;;;18.18;81.91;99243.13;5028626;28;20198;-71
2023/05/16 06:50:24;;;;;;;19.17;16.77;;;;;;;18.11;82.30;99235.25;5013035;28;20728;-73
2023/05/16 06:52:51;;;;;;;24.83;17.07;;;;;;;18.21;83.65;99224.59;5022627;28;20213;-68
2023/05/16 06:55:18;;;;;;;16.40;13.97;;;;;;;18.50;85.23;99212.56;5013033;28;20194;-68
2023/05/16 06:57:44;;;;;;;17.70;12.97;;;;;;;18.89;86.00;99215.91;5016966;28;20252;-68
2023/05/16 07:00:12;;;;;;;15.37;13.50;;;;;;;19.23;85.16;99222.63;5011940;28;20615;-69
2023/05/16 07:02:38;;;;;;;25.17;13.47;;;;;;;19.54;81.64;99229.91;5021537;28;20271;-69
2023/05/16 07:05:07;;;;;;;22.57;15.13;;;;;;;19.80;78.53;99239.75;5024712;28;20248;-69
2023/05/16 07:07:35;;;;;;;23.67;16.00;;;;;;;19.70;75.72;99204.66;5026907;28;20661;-75
2023/05/16 07:10:02;;;;;;;27.80;15.97;;;;;;;19.91;76.38;99230.66;5031342;28;20243;-77
2023/05/16 07:12:29;;;;;;;15.40;12.87;;;;;;;20.00;76.23;99242.53;5030574;28;20708;-71
2023/05/16 07:14:55;;;;;;;14.47;12.37;;;;;;;20.22;77.44;99224.34;5026282;28;20187;-69
2023/05/16 07:17:22;;;;;;;16.13;12.73;;;;;;;20.51;76.59;99225.50;5011864;28;20194;-68
2023/05/16 07:19:49;;;;;;;19.47;11.43;;;;;;;20.62;73.73;99219.03;5023352;28;20259;-69
2023/05/16 07:22:16;;;;;;;17.90;11.63;;;;;;;20.86;74.17;99224.75;5030533;28;20244;-71
2023/05/16 07:24:44;;;;;;;14.43;11.10;;;;;;;21.13;73.58;99228.03;5031354;28;20192;-67
2023/05/16 07:27:11;;;;;;;13.33;10.23;;;;;;;21.37;71.74;99229.09;5029510;28;20662;-69
2023/05/16 07:29:38;;;;;;;15.43;10.77;;;;;;;21.27;69.32;99213.69;5032246;28;20228;-69
2023/05/16 07:32:06;;;;;;;13.90;10.03;;;;;;;21.39;70.67;99221.53;5026745;28;20210;-77
2023/05/16 07:34:33;;;;;;;11.87;10.87;;;;;;;21.62;70.25;99215.53;5015072;28;20186;-73
2023/05/16 07:37:00;;;;;;;13.63;11.70;;;;;;;21.82;68.40;99229.84;5015324;28;20251;-74
2023/05/16 07:39:26;;;;;;;12.47;11.17;;;;;;;21.87;67.05;99229.84;5017559;28;20255;-73
2023/05/16 07:41:55;;;;;;;12.50;11.17;;;;;;;21.84;67.38;99211.44;5034407;28;20588;-75
2023/05/16 07:44:22;;;;;;;13.30;10.30;;;;;;;21.89;67.03;99216.84;5017070;28;20708;-74
2023/05/16 07:46:49;;;;;;;13.47;10.73;;;;;;;21.83;67.16;99217.94;5018144;28;20200;-73
2023/05/16 07:49:16;;;;;;;13.80;11.40;;;;;;;21.77;67.27;99219.06;5027294;28;20216;-75
2023/05/16 07:51:42;;;;;;;12.83;10.57;;;;;;;21.74;67.84;99214.19;5027603;28;20209;-74
2023/05/16 07:54:09;;;;;;;11.13;10.03;;;;;;;21.75;67.96;99215.81;5021388;28;20198;-73
2023/05/16 07:56:36;;;;;;;17.37;11.03;;;;;;;21.70;67.25;99213.13;5016417;28;20248;-73
2023/05/16 07:59:04;;;;;;;38.77;11.70;;;;;;;21.47;68.78;99202.06;5022438;28;20202;-74
2023/05/16 08:01:31;;;;;;;19.27;12.23;;;;;;;21.41;69.19;99189.63;5014516;28;20209;-73
2023/05/16 08:03:58;;;;;;;20.13;12.37;;;;;;;20.88;70.79;99179.38;5019352;28;20193;-75
2023/05/16 08:06:24;;;;;;;25.67;13.60;;;;;;;20.90;71.36;99179.94;5029043;28;20621;-75
2023/05/16 08:08:51;;;;;;;22.23;13.13;;;;;;;21.00;71.43;99179.97;5016510;28;20189;-75
2023/05/16 08:11:21;;;;;;;13.97;12.60;;;;;;;20.94;70.65;99186.44;5014230;28;20202;-75
2023/05/16 08:13:47;;;;;;;15.53;12.90;;;;;;;20.86;71.17;99185.03;5027268;28;20208;-74
2023/05/16 08:16:16;;;;;;;23.00;14.87;;;;;;;20.66;72.13;99179.63;5033006;28;20263;-72
2023/05/16 08:18:42;;;;;;;33.50;22.33;;;;;;;20.72;71.81;99178.56;5028672;28;20200;-73
2023/05/16 08:21:09;;;;;;;41.60;25.27;;;;;;;20.65;72.53;99180.72;5029250;28;20209;-75
2023/05/16 08:23:36;;;;;;;21.77;16.20;;;;;;;20.68;72.29;99172.09;5023003;28;20657;-72
2023/05/16 08:26:03;;;;;;;15.73;14.07;;;;;;;20.69;71.96;99176.41;5019553;28;20275;-75
2023/05/16 08:28:29;;;;;;;13.67;12.20;;;;;;;20.72;71.97;99178.56;5014048;28;20202;-80
2023/05/16 08:30:56;;;;;;;13.50;12.23;;;;;;;20.65;71.79;99178.03;5017734;28;20756;-75
2023/05/16 08:33:24;;;;;;;14.63;12.27;;;;;;;20.62;71.79;99186.66;5019723;28;20214;-76
2023/05/16 08:35:51;;;;;;;12.60;11.30;;;;;;;20.66;71.27;99179.63;5014029;28;20748;-76
2023/05/16 08:38:18;;;;;;;19.87;11.70;;;;;;;20.66;72.49;99173.44;5014137;28;20198;-77
2023/05/16 08:40:45;;;;;;;14.93;12.17;;;;;;;20.74;73.00;99154.81;5014058;28;20253;-75
2023/05/16 08:43:13;;;;;;;15.10;12.37;;;;;;;20.88;72.97;99155.09;5013410;28;20194;-76
2023/05/16 08:45:41;;;;;;;15.73;11.47;;;;;;;21.00;72.17;99164.56;5013735;28;20202;-75
2023/05/16 08:48:10;;;;;;;12.03;10.90;;;;;;;21.03;72.79;99157.81;5013691;28;20277;-75
2023/05/16 08:50:38;;;;;;;15.27;11.83;;;;;;;21.14;71.73;99154.81;5013377;28;20198;-75
2023/05/16 08:53:07;;;;;;;15.37;11.57;;;;;;;21.29;71.52;99148.59;5014392;28;20218;-76
2023/05/16 08:55:36;;;;;;;16.37;12.10;;;;;;;21.44;71.73;99160.16;5014316;28;20210;-76
2023/05/16 08:58:03;;;;;;;19.83;11.70;;;;;;;21.55;71.98;99155.56;5023960;28;20202;-74
2023/05/16 09:00:31;;;;;;;13.37;10.20;;;;;;;21.71;70.58;99157.97;5013632;28;20202;-74
2023/05/16 09:02:57;;;;;;;12.77;11.47;;;;;;;21.69;70.82;99154.69;5014251;28;20198;-78
2023/05/16 09:05:25;;;;;;;13.67;12.10;;;;;;;21.75;70.75;99134.69;5019463;28;20194;-77
2023/05/16 09:07:53;;;;;;;15.20;11.67;;;;;;;21.95;70.20;99150.00;5032483;28;20197;-74
2023/05/16 09:10:20;;;;;;;17.87;11.50;;;;;;;21.79;70.86;99157.38;5029822;28;20189;-76
2023/05/16 09:12:47;;;;;;;15.47;11.90;;;;;;;21.87;69.75;99159.53;5017626;28;20255;-76
2023/05/16 09:15:14;;;;;;;18.57;12.50;;;;;;;21.97;70.03;99154.06;5033362;28;20197;-74
2023/05/16 09:17:43;;;;;;;16.13;11.30;;;;;;;22.16;69.41;99155.06;5032953;28;20194;-74
2023/05/16 09:20:11;;;;;;;12.70;11.50;;;;;;;22.44;69.63;99158.94;5025583;28;20201;-72
2023/05/16 09:22:38;;;;;;;11.90;10.80;;;;;;;22.62;68.02;99159.09;5021922;28;20198;-72
2023/05/16 09:25:07;;;;;;;13.33;11.20;;;;;;;22.72;67.51;99150.94;5023827;28;20248;-77
2023/05/16 09:27:34;;;;;;;7.80;7.03;;;;;;;22.89;69.22;99161.34;5019460;28;20202;-80
2023/05/16 09:30:00;;;;;;;9.63;8.33;;;;;;;23.08;70.46;99143.28;5026597;28;20763;-81
2023/05/16 09:32:27;;;;;;;10.73;9.67;;;;;;;23.16;66.50;99167.84;5026502;28;20398;-74
2023/05/16 09:34:57;;;;;;;11.43;10.33;;;;;;;22.67;65.85;99152.84;5029653;28;20735;-78
2023/05/16 09:37:24;;;;;;;14.10;10.50;;;;;;;22.52;67.17;99142.94;5032481;28;20665;-74
2023/05/16 09:39:52;;;;;;;18.60;10.80;;;;;;;22.48;67.70;99131.06;5023263;28;20669;-75
2023/05/16 09:42:21;;;;;;;11.40;10.40;;;;;;;22.26;68.57;99127.91;5032753;28;20201;-73
2023/05/16 09:44:49;;;;;;;11.33;9.97;;;;;;;22.08;68.33;99139.41;5031362;28;20280;-73
2023/05/16 09:47:16;;;;;;;11.37;10.37;;;;;;;22.08;68.28;99144.81;5021338;28;20260;-75
2023/05/16 09:49:45;;;;;;;12.27;10.70;;;;;;;22.17;68.88;99132.31;5019359;28;20581;-74
2023/05/16 09:52:12;;;;;;;11.67;10.47;;;;;;;22.08;68.72;99096.13;5028900;28;20217;-74
2023/05/16 09:54:39;;;;;;;11.47;10.47;;;;;;;22.14;68.76;99102.31;5028678;28;20216;-73
2023/05/16 09:57:06;;;;;;;11.37;10.53;;;;;;;22.03;68.39;99111.56;5032255;28;20268;-74
2023/05/16 09:59:37;;;;;;;12.20;10.67;;;;;;;21.53;71.21;99112.59;5022234;28;20656;-77
2023/05/16 10:02:06;;;;;;;13.53;11.10;;;;;;;21.74;70.96;99116.03;5031953;28;20284;-77
2023/05/16 10:04:33;;;;;;;12.87;11.33;;;;;;;21.87;69.58;99116.25;5018350;28;20628;-77
2023/05/16 10:07:02;;;;;;;12.00;10.97;;;;;;;22.09;68.97;99130.19;5022886;28;20251;-78
2023/05/16 10:09:31;;;;;;;13.10;12.00;;;;;;;21.89;68.57;99133.00;5030089;28;20280;-82
2023/05/16 10:12:03;;;;;;;13.07;11.53;;;;;;;21.99;68.62;99151.91;5021295;28;20558;-79
2023/05/16 10:14:33;;;;;;;13.73;12.23;;;;;;;21.89;68.95;99143.03;5040923;28;20208;-75
2023/05/16 10:17:03;;;;;;;18.17;13.07;;;;;;;21.99;69.30;99124.84;5032170;28;20225;-75
2023/05/16 10:19:32;;;;;;;14.33;13.03;;;;;;;21.96;69.14;99114.56;5030938;28;20735;-76
2023/05/16 10:22:04;;;;;;;14.90;13.20;;;;;;;22.11;69.25;99100.16;5030977;28;20193;-75
2023/05/16 10:24:39;;;;;;;14.37;12.80;;;;;;;22.17;68.49;99091.72;5030530;28;20185;-75
2023/05/16 10:27:06;;;;;;;14.67;13.17;;;;;;;22.14;68.87;99089.59;5031892;28;20242;-75
2023/05/16 10:29:33;;;;;;;16.20;13.23;;;;;;;21.93;69.51;99081.88;5031513;28;20239;-74
2023/05/16 10:32:03;;;;;;;15.20;13.53;;;;;;;21.88;69.94;99069.19;5031309;28;20292;-74
2023/05/16 10:34:31;;;;;;;14.90;13.40;;;;;;;21.99;69.47;99086.16;5029533;28;20186;-75
2023/05/16 10:36:58;;;;;;;16.47;13.67;;;;;;;22.00;70.20;99085.88;5029873;28;20279;-76
2023/05/16 10:39:25;;;;;;;14.73;13.23;;;;;;;22.20;69.68;99072.22;5022795;28;20186;-75
2023/05/16 10:41:52;;;;;;;18.53;14.93;;;;;;;22.45;68.53;99069.31;5019333;28;20262;-74
2023/05/16 10:44:19;;;;;;;17.47;14.17;;;;;;;22.62;68.03;99069.75;5022874;28;20739;-75
2023/05/16 10:46:47;;;;;;;16.47;14.70;;;;;;;22.70;67.78;99044.78;5025266;28;20190;-74
2023/05/16 10:49:23;;;;;;;14.53;13.17;;;;;;;22.77;67.35;99055.25;5024045;28;20197;-74
2023/05/16 10:52:04;;;;;;;15.53;13.97;;;;;;;22.94;67.74;99056.47;5031611;28;20189;-75
2023/05/16 10:54:35;;;;;;;18.60;14.57;;;;;;;22.91;67.40;99048.91;5031705;28;20233;-74
2023/05/16 10:57:05;;;;;;;16.17;14.57;;;;;;;22.91;66.69;99031.84;5031672;28;20177;-74
2023/05/16 10:59:40;;;;;;;15.50;14.20;;;;;;;22.77;67.11;99066.91;5017902;28;20221;-74
2023/05/16 11:02:22;;;;;;;19.93;15.93;;;;;;;22.57;68.60;99061.69;5021416;28;20186;-76
2023/05/16 11:04:51;;;;;;;15.23;13.37;;;;;;;22.37;68.30;98990.66;5020991;28;20197;-75
2023/05/16 11:07:19;;;;;;;15.80;14.10;;;;;;;22.98;67.50;99038.53;5030248;28;20193;-74
2023/05/16 11:09:52;;;;;;;15.53;13.20;;;;;;;22.89;67.20;99010.47;5022662;28;20674;-77
2023/05/16 11:12:20;;;;;;;14.93;13.40;;;;;;;23.09;66.55;99031.91;5023168;28;20638;-75
2023/05/16 11:14:51;;;;;;;15.80;14.30;;;;;;;23.13;67.16;99037.56;5032515;28;20193;-75
2023/05/16 11:17:21;;;;;;;18.97;14.27;;;;;;;22.85;67.92;99039.22;5028473;28;20239;-75